Deronda, Wisconsin
Current Conditions -  °F | °C
As of 10:15 AM on Wednesday 26 Nov 2014 (Local Time) from KOEO Reporting Station
Light Snow Light Snow  
Wind Chill: 18°   Ceiling: 900
Heat Index: 24°   Visibility: 2mi
Dew Point: 21°   Wind: 5mph
Humidity: 90%   Direction: 10°N
Pressure: 30.21"   Gusts: NA
Location:  45.3559°N, 92.3527°W
Report Text: KOEO 261615Z AUTO 01004KT 2SM -SN BKN009 BKN016 OVC022 M04/M06 A3021 RMK AO2 T10451059
Loading
Personal Weather Stations






























Interactive Weather Map New forecast layout! Learn more

10-Day Weather Forecast

Advertisements
Track Severe Weather on mobile